createdAt,value
2023-02-03T00:02:35.156Z,72.24
2023-02-03T00:07:35.053Z,72.30
2023-02-03T00:12:35.026Z,72.30
2023-02-03T00:17:34.943Z,72.34
2023-02-03T00:22:34.868Z,72.38
2023-02-03T00:27:34.784Z,72.38
2023-02-03T00:32:34.794Z,72.40
2023-02-03T00:37:34.666Z,72.41
2023-02-03T00:42:34.611Z,72.43
2023-02-03T00:47:34.494Z,72.46
2023-02-03T00:52:34.475Z,72.51
2023-02-03T00:57:34.377Z,72.54
2023-02-03T01:02:34.361Z,72.55
2023-02-03T01:07:43.749Z,72.35
2023-02-03T01:12:36.135Z,72.57
2023-02-03T01:17:36.107Z,72.72
2023-02-03T01:22:36.012Z,72.78
2023-02-03T01:27:36.072Z,72.78
2023-02-03T01:32:35.864Z,72.84
2023-02-03T01:37:35.811Z,72.83
2023-02-03T01:42:35.745Z,72.86
2023-02-03T01:47:35.687Z,72.92
2023-02-03T01:52:35.595Z,72.91
2023-02-03T01:57:35.544Z,72.93
2023-02-03T02:02:35.537Z,72.91
2023-02-03T02:07:35.435Z,72.86
2023-02-03T02:12:35.329Z,72.84
2023-02-03T02:17:35.283Z,72.86
2023-02-03T02:22:35.211Z,72.87
2023-02-03T02:27:35.156Z,72.88
2023-02-03T02:32:35.052Z,72.89
2023-02-03T02:37:35.028Z,72.91
2023-02-03T02:42:34.917Z,72.94
2023-02-03T02:47:34.932Z,72.95
2023-02-03T02:52:34.801Z,73.00
2023-02-03T02:57:34.751Z,73.03
2023-02-03T03:02:34.678Z,73.04
2023-02-03T03:07:34.629Z,73.06
2023-02-03T03:12:34.541Z,73.13
2023-02-03T03:17:34.468Z,73.08
2023-02-03T03:22:34.402Z,73.01
2023-02-03T03:27:34.396Z,72.98
2023-02-03T03:32:34.284Z,72.97
2023-02-03T03:37:34.229Z,72.99
2023-02-03T03:42:34.143Z,73.00
2023-02-03T03:47:34.105Z,73.04
2023-02-03T03:52:34.008Z,73.04
2023-02-03T03:57:33.954Z,73.02
2023-02-03T04:02:33.966Z,73.05
2023-02-03T04:07:33.813Z,73.08
2023-02-03T04:12:33.729Z,73.08
2023-02-03T04:17:33.688Z,73.09
2023-02-03T04:22:33.601Z,73.09
2023-02-03T04:27:33.554Z,73.10
2023-02-03T04:32:33.455Z,73.12
2023-02-03T04:37:33.423Z,73.16
2023-02-03T04:42:33.329Z,73.17
2023-02-03T04:47:33.243Z,73.16
2023-02-03T04:52:33.198Z,73.09
2023-02-03T04:57:33.161Z,73.04
2023-02-03T05:02:33.046Z,73.01
2023-02-03T05:07:33.022Z,72.99
2023-02-03T05:12:32.915Z,72.94
2023-02-03T05:17:52.459Z,72.69
2023-02-03T05:22:44.849Z,72.84
2023-02-03T05:27:44.821Z,72.92
2023-02-03T05:32:44.715Z,72.94
2023-02-03T05:37:44.626Z,72.91
2023-02-03T05:42:44.618Z,72.90
2023-02-03T05:47:44.496Z,72.88
2023-02-03T05:52:44.456Z,72.84
2023-02-03T05:57:44.449Z,72.80
2023-02-03T06:02:44.463Z,72.78
2023-02-03T06:07:44.232Z,72.79
2023-02-03T06:12:44.175Z,72.75
2023-02-03T06:17:44.106Z,72.70
2023-02-03T06:22:44.048Z,72.65
2023-02-03T06:27:43.978Z,72.57
2023-02-03T06:32:43.978Z,72.54
2023-02-03T06:37:43.847Z,72.56
2023-02-03T06:42:43.779Z,72.54
2023-02-03T06:47:43.720Z,72.50
2023-02-03T06:52:43.655Z,72.43
2023-02-03T06:57:43.577Z,72.30
2023-02-03T07:02:43.637Z,72.20
2023-02-03T07:07:43.441Z,72.06
2023-02-03T07:12:43.377Z,71.83
2023-02-03T07:17:43.292Z,71.59
2023-02-03T07:22:43.257Z,71.39
2023-02-03T07:27:43.204Z,71.21
2023-02-03T07:32:43.455Z,70.88
2023-02-03T07:37:43.062Z,70.71
2023-02-03T07:42:42.985Z,70.60
2023-02-03T07:47:42.879Z,70.50
2023-02-03T07:52:42.872Z,70.45
2023-02-03T07:57:42.771Z,70.33
2023-02-03T08:02:42.714Z,70.10
2023-02-03T08:07:42.641Z,70.10
2023-02-03T08:12:44.819Z,69.92
2023-02-03T08:17:42.525Z,69.72
2023-02-03T08:22:42.434Z,69.71
2023-02-03T08:27:42.420Z,69.62
2023-02-03T08:32:42.298Z,69.63
2023-02-03T08:37:42.224Z,69.55
2023-02-03T08:42:42.156Z,69.37
2023-02-03T08:47:42.102Z,69.16
2023-02-03T08:52:42.021Z,68.85
2023-02-03T08:57:41.962Z,68.89
2023-02-03T09:02:41.924Z,68.77
2023-02-03T09:07:41.825Z,68.50
2023-02-03T09:12:41.749Z,68.31
2023-02-03T09:17:41.692Z,68.27
2023-02-03T09:22:41.649Z,68.14
2023-02-03T09:27:41.577Z,67.82
2023-02-03T09:32:41.512Z,67.63
2023-02-03T09:37:41.450Z,67.46
2023-02-03T09:42:41.403Z,67.28
2023-02-03T09:47:41.307Z,67.29
2023-02-03T09:52:41.242Z,67.09
2023-02-03T09:57:41.165Z,67.04
2023-02-03T10:02:41.185Z,67.21
2023-02-03T10:07:41.014Z,67.27
2023-02-03T10:12:40.952Z,67.33
2023-02-03T10:17:40.892Z,67.43
2023-02-03T10:22:40.824Z,68.06
2023-02-03T10:27:40.817Z,68.34
2023-02-03T10:32:40.682Z,68.81
2023-02-03T10:37:40.610Z,69.23
2023-02-03T10:42:40.548Z,69.71
2023-02-03T10:47:40.572Z,69.89
2023-02-03T10:52:40.407Z,70.00
2023-02-03T10:57:40.423Z,70.08
2023-02-03T11:02:40.382Z,70.23
2023-02-03T11:07:40.228Z,70.42
2023-02-03T11:12:40.214Z,70.47
2023-02-03T11:17:40.106Z,70.90
2023-02-03T11:22:40.008Z,70.93
2023-02-03T11:27:40.019Z,71.08
2023-02-03T11:32:39.887Z,71.36
2023-02-03T11:37:39.847Z,71.55
2023-02-03T11:42:39.731Z,71.66
2023-02-03T11:47:39.756Z,71.66
2023-02-03T11:52:39.607Z,71.50
2023-02-03T11:57:39.560Z,71.27
2023-02-03T12:02:39.500Z,71.21
2023-02-03T12:07:39.420Z,71.26
2023-02-03T12:12:39.343Z,71.28
2023-02-03T12:17:39.282Z,71.29
2023-02-03T12:22:39.209Z,71.35
2023-02-03T12:27:39.390Z,71.25
2023-02-03T12:32:39.074Z,71.22
2023-02-03T12:37:39.501Z,71.19
2023-02-03T12:42:38.962Z,71.12
2023-02-03T12:47:38.872Z,71.01
2023-02-03T12:52:38.810Z,70.96
2023-02-03T12:57:38.749Z,70.83
2023-02-03T13:02:38.659Z,70.92
2023-02-03T13:07:38.652Z,70.94
2023-02-03T13:12:38.545Z,71.03
2023-02-03T13:17:38.499Z,71.09
2023-02-03T13:22:38.393Z,71.19
2023-02-03T13:27:38.402Z,71.14
2023-02-03T13:32:38.268Z,71.16
2023-02-03T13:37:38.259Z,71.25
2023-02-03T13:42:38.165Z,71.25
2023-02-03T13:47:38.102Z,71.08
2023-02-03T13:52:38.018Z,70.99
2023-02-03T13:57:37.938Z,70.96
2023-02-03T14:02:37.882Z,71.08
2023-02-03T14:07:37.853Z,70.93
2023-02-03T14:12:37.751Z,70.78
2023-02-03T14:17:37.701Z,70.95
2023-02-03T14:22:37.602Z,71.09
2023-02-03T14:27:37.579Z,71.21
2023-02-03T14:32:37.448Z,71.33
2023-02-03T14:37:37.454Z,71.63
2023-02-03T14:42:37.338Z,71.81
2023-02-03T14:47:37.287Z,71.99
2023-02-03T14:52:37.181Z,72.19
2023-02-03T14:57:37.148Z,72.35
2023-02-03T15:02:37.042Z,72.36
2023-02-03T15:07:36.979Z,72.13
2023-02-03T15:12:36.914Z,71.96
2023-02-03T15:17:36.920Z,71.90
2023-02-03T15:22:36.783Z,71.97
2023-02-03T15:27:36.808Z,71.77
2023-02-03T15:32:36.663Z,71.99
2023-02-03T15:37:36.579Z,72.34
2023-02-03T15:42:36.507Z,72.54
2023-02-03T15:47:36.471Z,72.74
2023-02-03T15:52:36.397Z,72.88
2023-02-03T15:57:36.330Z,73.16
2023-02-03T16:02:36.257Z,73.39
2023-02-03T16:07:36.193Z,73.67
2023-02-03T16:12:36.096Z,73.68
2023-02-03T16:17:36.070Z,73.76
2023-02-03T16:22:35.967Z,73.79
2023-02-03T16:27:35.934Z,73.79
2023-02-03T16:32:35.859Z,73.82
2023-02-03T16:37:35.845Z,73.80
2023-02-03T16:42:35.711Z,73.84
2023-02-03T16:47:35.680Z,73.81
2023-02-03T16:52:35.578Z,73.78
2023-02-03T16:57:35.621Z,73.74
2023-02-03T17:02:35.492Z,73.69
2023-02-03T17:07:35.421Z,73.65
2023-02-03T17:12:35.319Z,73.65
2023-02-03T17:17:35.268Z,73.65
2023-02-03T17:22:35.172Z,73.70
2023-02-03T17:27:35.123Z,73.81
2023-02-03T17:32:35.052Z,73.96
2023-02-03T17:37:34.995Z,74.10
2023-02-03T17:54:12.775Z,74.65
2023-02-03T17:59:12.677Z,74.68
2023-02-03T18:04:12.605Z,74.55
2023-02-03T18:09:12.532Z,74.45
2023-02-03T18:14:12.463Z,74.40
2023-02-03T18:19:12.394Z,74.35
2023-02-03T18:24:12.365Z,74.30
2023-02-03T18:29:12.250Z,74.21
2023-02-03T18:34:12.857Z,74.07
2023-02-03T18:39:12.760Z,73.96
2023-02-03T18:44:12.102Z,73.88
2023-02-03T18:49:12.015Z,73.81
2023-02-03T18:54:11.959Z,73.76
2023-02-03T18:59:11.904Z,73.73
2023-02-03T19:04:11.837Z,73.72
2023-02-03T19:09:11.739Z,73.68
2023-02-03T19:14:11.738Z,73.64
2023-02-03T19:19:11.625Z,73.55
2023-02-03T19:24:11.565Z,73.49
2023-02-03T19:29:11.614Z,73.41
2023-02-03T19:34:11.440Z,73.41
2023-02-03T19:39:11.369Z,73.25
2023-02-03T19:44:11.297Z,73.22
2023-02-03T19:49:11.228Z,73.02
2023-02-03T19:54:11.202Z,72.91
2023-02-03T19:59:11.121Z,72.81
2023-02-03T20:04:11.067Z,72.81
2023-02-03T20:09:10.962Z,72.85
2023-02-03T20:14:11.639Z,72.88
2023-02-03T20:19:10.852Z,72.91
2023-02-03T20:24:10.808Z,72.94
2023-02-03T20:29:10.727Z,72.91
2023-02-03T20:34:10.690Z,72.86
2023-02-03T20:39:10.589Z,72.84
2023-02-03T20:44:10.572Z,72.85
2023-02-03T20:49:10.451Z,72.84
2023-02-03T20:54:10.430Z,72.76
2023-02-03T20:59:10.338Z,72.65
2023-02-03T21:04:11.938Z,72.55
2023-02-03T21:09:10.179Z,72.56
2023-02-03T21:14:10.163Z,72.53
2023-02-03T21:19:10.086Z,72.46
2023-02-03T21:24:10.038Z,72.44
2023-02-03T21:29:09.967Z,72.25
2023-02-03T21:34:09.900Z,72.12
2023-02-03T21:39:09.792Z,72.07
2023-02-03T21:44:09.780Z,72.02
2023-02-03T21:49:09.679Z,71.97
2023-02-03T21:54:09.623Z,71.85
2023-02-03T21:59:09.542Z,71.83
2023-02-03T22:04:09.487Z,71.87
2023-02-03T22:09:09.422Z,71.86
2023-02-03T22:14:09.350Z,71.73
2023-02-03T22:19:09.264Z,71.54
2023-02-03T22:24:09.227Z,71.59
2023-02-03T22:29:09.220Z,71.53
2023-02-03T22:34:09.135Z,71.46
2023-02-03T22:39:09.005Z,71.43
2023-02-03T22:44:08.948Z,71.34
2023-02-03T22:49:08.884Z,71.40
2023-02-03T22:54:08.806Z,71.26
2023-02-03T22:59:08.768Z,71.31
2023-02-03T23:04:08.698Z,71.30
2023-02-03T23:09:08.600Z,71.13
2023-02-03T23:14:08.550Z,71.03
2023-02-03T23:19:08.482Z,71.05
2023-02-03T23:24:08.416Z,71.06
2023-02-03T23:29:08.355Z,71.12
2023-02-03T23:34:08.293Z,71.12
2023-02-03T23:39:08.193Z,71.04
2023-02-03T23:44:08.162Z,71.01
2023-02-03T23:49:08.102Z,71.02
2023-02-03T23:54:08.047Z,71.04
2023-02-03T23:59:07.962Z,71.05
